sensor_id;sensor_type;location;lat;lon;timestamp;pressure;altitude;pressure_sealevel;temperature;humidity
75036;BME280;64247;51.540;5.854;2022-11-27T00:00:04;102260.31;;;3.95;100.00
75036;BME280;64247;51.540;5.854;2022-11-27T00:02:26;102263.25;;;3.94;100.00
75036;BME280;64247;51.540;5.854;2022-11-27T00:04:27;102263.25;;;3.94;100.00
75036;BME280;64247;51.540;5.854;2022-11-27T00:06:29;102263.50;;;3.92;100.00
75036;BME280;64247;51.540;5.854;2022-11-27T00:08:30;102256.78;;;3.90;100.00
75036;BME280;64247;51.540;5.854;2022-11-27T00:10:31;102253.03;;;3.91;100.00
75036;BME280;64247;51.540;5.854;2022-11-27T00:12:32;102247.66;;;3.91;100.00
75036;BME280;64247;51.540;5.854;2022-11-27T00:14:33;102243.88;;;3.87;100.00
75036;BME280;64247;51.540;5.854;2022-11-27T00:16:33;102245.19;;;3.84;100.00
75036;BME280;64247;51.540;5.854;2022-11-27T00:18:35;102248.13;;;3.83;100.00
75036;BME280;64247;51.540;5.854;2022-11-27T00:20:36;102237.91;;;3.79;100.00
75036;BME280;64247;51.540;5.854;2022-11-27T00:22:37;102238.44;;;3.76;100.00
75036;BME280;64247;51.540;5.854;2022-11-27T00:24:37;102232.78;;;3.73;100.00
75036;BME280;64247;51.540;5.854;2022-11-27T00:26:38;102228.47;;;3.72;100.00
75036;BME280;64247;51.540;5.854;2022-11-27T00:28:39;102218.78;;;3.71;100.00
75036;BME280;64247;51.540;5.854;2022-11-27T00:30:40;102220.69;;;3.70;100.00
75036;BME280;64247;51.540;5.854;2022-11-27T00:32:41;102222.00;;;3.68;100.00
75036;BME280;64247;51.540;5.854;2022-11-27T00:34:42;102225.75;;;3.67;100.00
75036;BME280;64247;51.540;5.854;2022-11-27T00:36:43;102226.00;;;3.65;100.00
75036;BME280;64247;51.540;5.854;2022-11-27T00:38:44;102220.09;;;3.63;100.00
75036;BME280;64247;51.540;5.854;2022-11-27T00:40:45;102216.59;;;3.62;100.00
75036;BME280;64247;51.540;5.854;2022-11-27T00:42:47;102214.97;;;3.61;100.00
75036;BME280;64247;51.540;5.854;2022-11-27T00:44:47;102209.06;;;3.59;100.00
75036;BME280;64247;51.540;5.854;2022-11-27T00:46:48;102206.09;;;3.56;100.00
75036;BME280;64247;51.540;5.854;2022-11-27T00:48:50;102201.50;;;3.51;100.00
75036;BME280;64247;51.540;5.854;2022-11-27T00:50:51;102200.16;;;3.48;100.00
75036;BME280;64247;51.540;5.854;2022-11-27T00:52:52;102191.00;;;3.49;100.00
75036;BME280;64247;51.540;5.854;2022-11-27T00:54:53;102197.47;;;3.48;100.00
75036;BME280;64247;51.540;5.854;2022-11-27T00:56:54;102196.91;;;3.46;100.00
75036;BME280;64247;51.540;5.854;2022-11-27T00:58:55;102199.31;;;3.43;100.00
75036;BME280;64247;51.540;5.854;2022-11-27T01:01:04;102199.31;;;3.43;100.00
75036;BME280;64247;51.540;5.854;2022-11-27T01:03:06;102198.75;;;3.41;100.00
75036;BME280;64247;51.540;5.854;2022-11-27T01:05:08;102205.19;;;3.40;100.00
75036;BME280;64247;51.540;5.854;2022-11-27T01:07:09;102202.19;;;3.36;100.00
75036;BME280;64247;51.540;5.854;2022-11-27T01:09:13;102196.53;;;3.32;100.00
75036;BME280;64247;51.540;5.854;2022-11-27T01:11:18;102185.50;;;3.29;100.00
75036;BME280;64247;51.540;5.854;2022-11-27T01:13:30;102187.09;;;3.25;100.00
75036;BME280;64247;51.540;5.854;2022-11-27T01:15:32;102187.59;;;3.22;100.00
75036;BME280;64247;51.540;5.854;2022-11-27T01:17:33;102188.41;;;3.22;100.00
75036;BME280;64247;51.540;5.854;2022-11-27T01:19:34;102183.59;;;3.24;100.00
75036;BME280;64247;51.540;5.854;2022-11-27T01:21:35;102184.38;;;3.20;100.00
75036;BME280;64247;51.540;5.854;2022-11-27T01:23:36;102178.69;;;3.16;100.00
75036;BME280;64247;51.540;5.854;2022-11-27T01:25:36;102181.66;;;3.14;100.00
75036;BME280;64247;51.540;5.854;2022-11-27T01:27:37;102170.06;;;3.09;100.00
75036;BME280;64247;51.540;5.854;2022-11-27T01:29:38;102175.44;;;3.09;100.00
75036;BME280;64247;51.540;5.854;2022-11-27T01:31:39;102170.34;;;3.07;100.00
75036;BME280;64247;51.540;5.854;2022-11-27T01:33:41;102177.03;;;3.05;100.00
75036;BME280;64247;51.540;5.854;2022-11-27T01:35:42;102176.19;;;3.04;100.00
75036;BME280;64247;51.540;5.854;2022-11-27T01:37:51;102184.81;;;3.06;100.00
75036;BME280;64247;51.540;5.854;2022-11-27T01:39:52;102182.13;;;3.06;100.00
75036;BME280;64247;51.540;5.854;2022-11-27T01:41:53;102178.88;;;3.04;100.00
75036;BME280;64247;51.540;5.854;2022-11-27T01:43:57;102187.75;;;3.05;100.00
75036;BME280;64247;51.540;5.854;2022-11-27T01:46:00;102181.56;;;3.04;100.00
75036;BME280;64247;51.540;5.854;2022-11-27T01:48:02;102168.44;;;3.08;100.00
75036;BME280;64247;51.540;5.854;2022-11-27T01:50:10;102167.94;;;3.11;100.00
75036;BME280;64247;51.540;5.854;2022-11-27T01:52:32;102164.22;;;3.17;100.00
75036;BME280;64247;51.540;5.854;2022-11-27T01:54:41;102159.16;;;3.21;100.00
75036;BME280;64247;51.540;5.854;2022-11-27T01:56:54;102161.84;;;3.26;100.00
75036;BME280;64247;51.540;5.854;2022-11-27T01:58:58;102157.59;;;3.30;100.00
75036;BME280;64247;51.540;5.854;2022-11-27T02:01:00;102150.63;;;3.34;100.00
75036;BME280;64247;51.540;5.854;2022-11-27T02:03:01;102153.38;;;3.39;100.00
75036;BME280;64247;51.540;5.854;2022-11-27T02:05:02;102150.97;;;3.43;100.00
75036;BME280;64247;51.540;5.854;2022-11-27T02:07:03;102147.53;;;3.47;100.00
75036;BME280;64247;51.540;5.854;2022-11-27T02:09:05;102133.31;;;3.52;100.00
75036;BME280;64247;51.540;5.854;2022-11-27T02:11:20;102133.84;;;3.54;100.00
75036;BME280;64247;51.540;5.854;2022-11-27T02:20:00;102106.75;;;3.61;100.00
75036;BME280;64247;51.540;5.854;2022-11-27T02:31:26;102071.84;;;3.61;100.00
75036;BME280;64247;51.540;5.854;2022-11-27T02:33:53;102062.19;;;3.60;100.00
75036;BME280;64247;51.540;5.854;2022-11-27T02:36:08;102058.44;;;3.61;100.00
75036;BME280;64247;51.540;5.854;2022-11-27T02:38:24;102065.41;;;3.62;100.00
75036;BME280;64247;51.540;5.854;2022-11-27T02:43:18;102045.28;;;3.59;100.00
75036;BME280;64247;51.540;5.854;2022-11-27T02:45:30;102043.38;;;3.60;100.00
75036;BME280;64247;51.540;5.854;2022-11-27T02:47:36;102033.44;;;3.60;100.00
75036;BME280;64247;51.540;5.854;2022-11-27T02:49:40;102015.75;;;3.59;100.00
75036;BME280;64247;51.540;5.854;2022-11-27T02:51:50;102034.53;;;3.59;100.00
75036;BME280;64247;51.540;5.854;2022-11-27T02:54:00;102051.16;;;3.61;100.00
75036;BME280;64247;51.540;5.854;2022-11-27T02:56:05;102047.69;;;3.61;100.00
75036;BME280;64247;51.540;5.854;2022-11-27T02:58:13;102056.31;;;3.63;100.00
75036;BME280;64247;51.540;5.854;2022-11-27T03:00:19;102067.31;;;3.67;100.00
75036;BME280;64247;51.540;5.854;2022-11-27T03:02:26;102056.59;;;3.72;100.00
75036;BME280;64247;51.540;5.854;2022-11-27T03:04:40;102050.44;;;3.76;100.00
75036;BME280;64247;51.540;5.854;2022-11-27T03:06:52;102056.06;;;3.80;100.00
75036;BME280;64247;51.540;5.854;2022-11-27T03:09:00;102043.19;;;3.82;99.66
75036;BME280;64247;51.540;5.854;2022-11-27T03:11:10;102035.13;;;3.87;99.89
75036;BME280;64247;51.540;5.854;2022-11-27T03:13:13;102036.22;;;3.91;99.80
75036;BME280;64247;51.540;5.854;2022-11-27T03:15:14;102023.59;;;3.92;99.11
75036;BME280;64247;51.540;5.854;2022-11-27T03:20:20;102034.06;;;3.99;98.51
75036;BME280;64247;51.540;5.854;2022-11-27T03:22:25;102038.66;;;4.03;99.27
75036;BME280;64247;51.540;5.854;2022-11-27T03:24:28;102037.56;;;4.04;98.54
75036;BME280;64247;51.540;5.854;2022-11-27T03:26:32;102036.78;;;4.04;98.62
75036;BME280;64247;51.540;5.854;2022-11-27T03:28:35;102041.59;;;4.07;98.26
75036;BME280;64247;51.540;5.854;2022-11-27T03:30:36;102037.31;;;4.11;98.19
75036;BME280;64247;51.540;5.854;2022-11-27T03:32:40;102032.22;;;4.15;98.09
75036;BME280;64247;51.540;5.854;2022-11-27T03:34:41;102031.16;;;4.16;98.34
75036;BME280;64247;51.540;5.854;2022-11-27T03:36:44;102035.97;;;4.19;97.80
75036;BME280;64247;51.540;5.854;2022-11-27T03:38:46;102034.66;;;4.21;97.81
75036;BME280;64247;51.540;5.854;2022-11-27T03:44:01;102039.19;;;4.26;97.65
75036;BME280;64247;51.540;5.854;2022-11-27T03:55:48;102037.88;;;4.34;96.29
75036;BME280;64247;51.540;5.854;2022-11-27T03:58:31;102029.81;;;4.34;96.94
75036;BME280;64247;51.540;5.854;2022-11-27T04:00:54;102024.97;;;4.36;96.56
75036;BME280;64247;51.540;5.854;2022-11-27T04:03:01;102019.06;;;4.39;96.79
75036;BME280;64247;51.540;5.854;2022-11-27T04:05:03;102006.44;;;4.39;96.90
75036;BME280;64247;51.540;5.854;2022-11-27T04:07:05;102009.38;;;4.38;96.88
75036;BME280;64247;51.540;5.854;2022-11-27T04:09:06;102010.19;;;4.38;96.37
75036;BME280;64247;51.540;5.854;2022-11-27T04:11:07;102001.31;;;4.38;96.16
75036;BME280;64247;51.540;5.854;2022-11-27T04:13:08;102010.97;;;4.39;96.59
75036;BME280;64247;51.540;5.854;2022-11-27T04:15:29;102016.63;;;4.37;96.37
75036;BME280;64247;51.540;5.854;2022-11-27T04:17:31;102018.50;;;4.37;97.13
75036;BME280;64247;51.540;5.854;2022-11-27T04:19:32;102005.59;;;4.39;96.48
75036;BME280;64247;51.540;5.854;2022-11-27T04:21:33;102009.91;;;4.40;96.50
75036;BME280;64247;51.540;5.854;2022-11-27T04:23:34;102000.22;;;4.39;96.75
75036;BME280;64247;51.540;5.854;2022-11-27T04:25:37;102009.13;;;4.39;96.80
75036;BME280;64247;51.540;5.854;2022-11-27T04:27:38;102004.53;;;4.40;96.85
75036;BME280;64247;51.540;5.854;2022-11-27T04:29:38;102004.81;;;4.38;97.14
75036;BME280;64247;51.540;5.854;2022-11-27T04:31:39;101996.75;;;4.38;96.55
75036;BME280;64247;51.540;5.854;2022-11-27T04:33:40;101999.16;;;4.40;96.22
75036;BME280;64247;51.540;5.854;2022-11-27T04:35:41;102004.53;;;4.40;96.81
75036;BME280;64247;51.540;5.854;2022-11-27T04:37:42;101995.94;;;4.38;96.74
75036;BME280;64247;51.540;5.854;2022-11-27T04:39:43;101996.75;;;4.38;96.56
75036;BME280;64247;51.540;5.854;2022-11-27T04:41:44;101991.09;;;4.40;96.34
75036;BME280;64247;51.540;5.854;2022-11-27T04:43:45;102001.84;;;4.40;96.74
75036;BME280;64247;51.540;5.854;2022-11-27T04:45:46;101999.97;;;4.40;96.97
75036;BME280;64247;51.540;5.854;2022-11-27T04:47:47;102006.16;;;4.41;96.51
75036;BME280;64247;51.540;5.854;2022-11-27T04:49:47;101996.19;;;4.41;96.25
75036;BME280;64247;51.540;5.854;2022-11-27T04:51:48;102006.69;;;4.43;96.06
75036;BME280;64247;51.540;5.854;2022-11-27T04:53:49;102006.69;;;4.43;95.82
75036;BME280;64247;51.540;5.854;2022-11-27T04:55:50;102006.69;;;4.43;95.96
75036;BME280;64247;51.540;5.854;2022-11-27T04:57:52;102005.88;;;4.42;96.25
75036;BME280;64247;51.540;5.854;2022-11-27T04:59:52;102008.84;;;4.41;96.54
75036;BME280;64247;51.540;5.854;2022-11-27T05:01:53;102009.63;;;4.41;96.31
75036;BME280;64247;51.540;5.854;2022-11-27T05:03:54;101997.28;;;4.40;95.95
75036;BME280;64247;51.540;5.854;2022-11-27T05:05:56;101981.94;;;4.41;96.27
75036;BME280;64247;51.540;5.854;2022-11-27T05:07:58;101973.09;;;4.40;96.06
75036;BME280;64247;51.540;5.854;2022-11-27T05:09:59;101977.09;;;4.38;96.08
75036;BME280;64247;51.540;5.854;2022-11-27T05:11:59;101969.88;;;4.38;96.45
75036;BME280;64247;51.540;5.854;2022-11-27T05:14:00;101967.19;;;4.38;96.01
75036;BME280;64247;51.540;5.854;2022-11-27T05:16:20;101966.09;;;4.39;95.96
75036;BME280;64247;51.540;5.854;2022-11-27T05:18:21;101962.88;;;4.37;95.64
75036;BME280;64247;51.540;5.854;2022-11-27T05:20:22;101967.97;;;4.34;96.03
75036;BME280;64247;51.540;5.854;2022-11-27T05:22:23;101976.03;;;4.34;95.70
75036;BME280;64247;51.540;5.854;2022-11-27T05:24:26;101962.59;;;4.34;95.84
75036;BME280;64247;51.540;5.854;2022-11-27T05:26:28;101949.97;;;4.34;96.24
75036;BME280;64247;51.540;5.854;2022-11-27T05:28:29;101942.72;;;4.35;95.48
75036;BME280;64247;51.540;5.854;2022-11-27T05:30:29;101953.19;;;4.36;95.67
75036;BME280;64247;51.540;5.854;2022-11-27T05:32:30;101928.19;;;4.36;94.96
75036;BME280;64247;51.540;5.854;2022-11-27T05:34:31;101937.84;;;4.37;95.13
75036;BME280;64247;51.540;5.854;2022-11-27T05:36:33;101944.06;;;4.37;95.46
75036;BME280;64247;51.540;5.854;2022-11-27T05:38:34;101941.09;;;4.39;95.89
75036;BME280;64247;51.540;5.854;2022-11-27T05:40:35;101940.00;;;4.40;95.27
75036;BME280;64247;51.540;5.854;2022-11-27T05:42:36;101935.19;;;4.42;95.53
75036;BME280;64247;51.540;5.854;2022-11-27T05:44:37;101940.28;;;4.43;95.65
75036;BME280;64247;51.540;5.854;2022-11-27T05:46:38;101937.31;;;4.45;95.11
75036;BME280;64247;51.540;5.854;2022-11-27T05:48:39;101920.91;;;4.47;94.76
75036;BME280;64247;51.540;5.854;2022-11-27T05:50:40;101922.53;;;4.48;94.70
75036;BME280;64247;51.540;5.854;2022-11-27T05:52:41;101919.03;;;4.47;94.71
75036;BME280;64247;51.540;5.854;2022-11-27T05:54:42;101927.63;;;4.49;94.66
75036;BME280;64247;51.540;5.854;2022-11-27T05:56:43;101928.41;;;4.50;94.19
75036;BME280;64247;51.540;5.854;2022-11-27T05:58:46;101925.72;;;4.50;94.82
75036;BME280;64247;51.540;5.854;2022-11-27T06:00:47;101918.22;;;4.52;94.75
75036;BME280;64247;51.540;5.854;2022-11-27T06:02:48;101920.91;;;4.52;94.38
75036;BME280;64247;51.540;5.854;2022-11-27T06:04:49;101916.31;;;4.52;94.90
75036;BME280;64247;51.540;5.854;2022-11-27T06:06:50;101914.97;;;4.55;94.75
75036;BME280;64247;51.540;5.854;2022-11-27T06:08:51;101912.81;;;4.57;94.41
75036;BME280;64247;51.540;5.854;2022-11-27T06:10:51;101917.94;;;4.58;93.91
75036;BME280;64247;51.540;5.854;2022-11-27T06:12:52;101914.16;;;4.59;94.26
75036;BME280;64247;51.540;5.854;2022-11-27T06:14:54;101905.81;;;4.61;94.42
75036;BME280;64247;51.540;5.854;2022-11-27T06:16:55;101899.38;;;4.62;94.18
75036;BME280;64247;51.540;5.854;2022-11-27T06:18:56;101904.19;;;4.65;93.76
75036;BME280;64247;51.540;5.854;2022-11-27T06:20:56;101896.94;;;4.66;93.71
75036;BME280;64247;51.540;5.854;2022-11-27T06:22:58;101895.31;;;4.65;93.30
75036;BME280;64247;51.540;5.854;2022-11-27T06:24:58;101897.72;;;4.66;93.71
75036;BME280;64247;51.540;5.854;2022-11-27T06:26:59;101899.34;;;4.67;93.74
75036;BME280;64247;51.540;5.854;2022-11-27T06:29:00;101902.03;;;4.67;93.64
75036;BME280;64247;51.540;5.854;2022-11-27T06:31:08;101892.88;;;4.68;93.27
75036;BME280;64247;51.540;5.854;2022-11-27T06:33:10;101889.13;;;4.69;93.01
75036;BME280;64247;51.540;5.854;2022-11-27T06:35:11;101893.41;;;4.70;93.52
75036;BME280;64247;51.540;5.854;2022-11-27T06:37:12;101886.44;;;4.69;93.91
75036;BME280;64247;51.540;5.854;2022-11-27T06:39:13;101884.78;;;4.73;92.45
75036;BME280;64247;51.540;5.854;2022-11-27T06:41:19;101888.28;;;4.74;93.27
75036;BME280;64247;51.540;5.854;2022-11-27T06:43:21;101895.28;;;4.75;92.96
75036;BME280;64247;51.540;5.854;2022-11-27T06:45:22;101881.03;;;4.74;93.06
75036;BME280;64247;51.540;5.854;2022-11-27T06:47:23;101884.53;;;4.75;93.39
75036;BME280;64247;51.540;5.854;2022-11-27T06:49:24;101878.59;;;4.78;92.89
75036;BME280;64247;51.540;5.854;2022-11-27T06:51:27;101881.00;;;4.80;93.33
75036;BME280;64247;51.540;5.854;2022-11-27T06:53:30;101876.72;;;4.79;93.19
75036;BME280;64247;51.540;5.854;2022-11-27T06:55:32;101869.72;;;4.78;92.84
75036;BME280;64247;51.540;5.854;2022-11-27T06:57:33;101881.00;;;4.80;93.46
75036;BME280;64247;51.540;5.854;2022-11-27T06:59:34;101889.88;;;4.80;93.46
75036;BME280;64247;51.540;5.854;2022-11-27T07:01:34;101884.22;;;4.82;93.60
75036;BME280;64247;51.540;5.854;2022-11-27T07:03:35;101893.63;;;4.84;93.31
75036;BME280;64247;51.540;5.854;2022-11-27T07:05:36;101882.06;;;4.84;93.11
75036;BME280;64247;51.540;5.854;2022-11-27T07:07:37;101892.00;;;4.88;92.66
75036;BME280;64247;51.540;5.854;2022-11-27T07:09:38;101879.88;;;4.91;92.38
75036;BME280;64247;51.540;5.854;2022-11-27T07:11:39;101883.34;;;4.91;92.84
75036;BME280;64247;51.540;5.854;2022-11-27T07:13:40;101875.81;;;4.94;92.15
75036;BME280;64247;51.540;5.854;2022-11-27T07:15:42;101877.16;;;4.96;92.97
75036;BME280;64247;51.540;5.854;2022-11-27T07:17:43;101876.06;;;4.97;92.91
75036;BME280;64247;51.540;5.854;2022-11-27T07:19:43;101872.31;;;4.98;92.98
75036;BME280;64247;51.540;5.854;2022-11-27T07:21:44;101874.72;;;5.00;92.71
75036;BME280;64247;51.540;5.854;2022-11-27T07:23:45;101876.31;;;5.01;93.12
75036;BME280;64247;51.540;5.854;2022-11-27T07:25:47;101864.47;;;5.02;92.54
75036;BME280;64247;51.540;5.854;2022-11-27T07:27:48;101867.97;;;5.02;93.43
75036;BME280;64247;51.540;5.854;2022-11-27T07:29:48;101859.09;;;5.02;93.54
75036;BME280;64247;51.540;5.854;2022-11-27T07:31:49;101864.19;;;5.03;93.85
75036;BME280;64247;51.540;5.854;2022-11-27T07:33:51;101850.75;;;5.03;94.37
75036;BME280;64247;51.540;5.854;2022-11-27T07:36:00;101853.97;;;5.05;94.12
75036;BME280;64247;51.540;5.854;2022-11-27T07:38:05;101847.25;;;5.03;94.27
75036;BME280;64247;51.540;5.854;2022-11-27T07:40:07;101846.44;;;5.02;94.03
75036;BME280;64247;51.540;5.854;2022-11-27T07:42:08;101853.44;;;5.03;94.29
75036;BME280;64247;51.540;5.854;2022-11-27T07:44:09;101852.34;;;5.04;94.13
75036;BME280;64247;51.540;5.854;2022-11-27T07:46:16;101844.81;;;5.06;94.17
75036;BME280;64247;51.540;5.854;2022-11-27T07:48:20;101843.19;;;5.05;93.96
75036;BME280;64247;51.540;5.854;2022-11-27T07:50:21;101852.88;;;5.06;94.47
75036;BME280;64247;51.540;5.854;2022-11-27T07:52:22;101844.28;;;5.04;95.02
75036;BME280;64247;51.540;5.854;2022-11-27T07:54:23;101849.66;;;5.04;95.28
75036;BME280;64247;51.540;5.854;2022-11-27T07:56:23;101845.09;;;5.05;94.60
75036;BME280;64247;51.540;5.854;2022-11-27T07:58:24;101840.50;;;5.05;94.48
75036;BME280;64247;51.540;5.854;2022-11-27T08:00:25;101839.44;;;5.06;94.45
75036;BME280;64247;51.540;5.854;2022-11-27T08:02:26;101842.91;;;5.07;95.67
75036;BME280;64247;51.540;5.854;2022-11-27T08:04:27;101838.34;;;5.07;95.07
75036;BME280;64247;51.540;5.854;2022-11-27T08:06:28;101841.84;;;5.08;94.96
75036;BME280;64247;51.540;5.854;2022-11-27T08:08:29;101829.44;;;5.07;96.00
75036;BME280;64247;51.540;5.854;2022-11-27T08:10:33;101825.44;;;5.04;95.84
75036;BME280;64247;51.540;5.854;2022-11-27T08:12:35;101830.81;;;5.04;96.53
75036;BME280;64247;51.540;5.854;2022-11-27T08:14:35;101819.25;;;5.04;96.96
75036;BME280;64247;51.540;5.854;2022-11-27T08:16:36;101821.94;;;5.04;97.45
75036;BME280;64247;51.540;5.854;2022-11-27T08:18:37;101815.50;;;5.05;97.22
75036;BME280;64247;51.540;5.854;2022-11-27T08:20:38;101810.38;;;5.03;97.35
75036;BME280;64247;51.540;5.854;2022-11-27T08:22:39;101814.66;;;5.04;97.25
75036;BME280;64247;51.540;5.854;2022-11-27T08:24:40;101809.28;;;5.04;97.46
75036;BME280;64247;51.540;5.854;2022-11-27T08:26:41;101802.03;;;5.05;97.34
75036;BME280;64247;51.540;5.854;2022-11-27T08:28:42;101803.13;;;5.04;97.66
75036;BME280;64247;51.540;5.854;2022-11-27T08:30:44;101803.13;;;5.04;97.64
75036;BME280;64247;51.540;5.854;2022-11-27T08:32:45;101811.44;;;5.02;98.35
75036;BME280;64247;51.540;5.854;2022-11-27T08:34:46;101811.44;;;5.02;97.71
75036;BME280;64247;51.540;5.854;2022-11-27T08:36:46;101806.06;;;5.02;97.89
75036;BME280;64247;51.540;5.854;2022-11-27T08:38:47;101800.69;;;5.02;98.65
75036;BME280;64247;51.540;5.854;2022-11-27T08:41:14;101788.06;;;5.03;98.32
75036;BME280;64247;51.540;5.854;2022-11-27T08:43:15;101790.44;;;5.04;98.30
75036;BME280;64247;51.540;5.854;2022-11-27T08:45:16;101791.53;;;5.03;98.24
75036;BME280;64247;51.540;5.854;2022-11-27T08:47:18;101785.66;;;5.01;98.81
75036;BME280;64247;51.540;5.854;2022-11-27T08:49:18;101788.06;;;5.03;99.32
75036;BME280;64247;51.540;5.854;2022-11-27T08:51:19;101786.16;;;5.03;99.43
75036;BME280;64247;51.540;5.854;2022-11-27T08:53:20;101788.84;;;5.03;99.21
75036;BME280;64247;51.540;5.854;2022-11-27T08:55:21;101777.00;;;5.04;98.40
75036;BME280;64247;51.540;5.854;2022-11-27T08:57:22;101779.13;;;5.07;99.33
75036;BME280;64247;51.540;5.854;2022-11-27T08:59:23;101780.75;;;5.09;98.63
75036;BME280;64247;51.540;5.854;2022-11-27T09:01:26;101775.63;;;5.12;98.39
75036;BME280;64247;51.540;5.854;2022-11-27T09:03:29;101774.25;;;5.15;99.16
75036;BME280;64247;51.540;5.854;2022-11-27T09:05:30;101772.34;;;5.15;98.94
75036;BME280;64247;51.540;5.854;2022-11-27T09:07:32;101765.88;;;5.16;98.90
75036;BME280;64247;51.540;5.854;2022-11-27T09:09:33;101765.59;;;5.18;99.36
75036;BME280;64247;51.540;5.854;2022-11-27T09:11:36;101764.50;;;5.19;98.68
75036;BME280;64247;51.540;5.854;2022-11-27T09:13:37;101762.63;;;5.19;98.90
75036;BME280;64247;51.540;5.854;2022-11-27T09:15:39;101763.66;;;5.23;99.30
75036;BME280;64247;51.540;5.854;2022-11-27T09:17:40;101767.19;;;5.24;99.21
75036;BME280;64247;51.540;5.854;2022-11-27T09:19:42;101761.22;;;5.27;98.21
75036;BME280;64247;51.540;5.854;2022-11-27T09:21:43;101750.69;;;5.31;98.05
75036;BME280;64247;51.540;5.854;2022-11-27T09:23:44;101753.13;;;5.32;98.69
75036;BME280;64247;51.540;5.854;2022-11-27T09:25:45;101755.22;;;5.35;98.59
75036;BME280;64247;51.540;5.854;2022-11-27T09:27:46;101753.06;;;5.37;98.59
75036;BME280;64247;51.540;5.854;2022-11-27T09:29:47;101756.53;;;5.38;98.96
75036;BME280;64247;51.540;5.854;2022-11-27T09:31:49;101752.78;;;5.39;98.91
75036;BME280;64247;51.540;5.854;2022-11-27T09:33:50;101758.69;;;5.41;98.73
75036;BME280;64247;51.540;5.854;2022-11-27T09:35:51;101756.53;;;5.43;98.29
75036;BME280;64247;51.540;5.854;2022-11-27T09:37:52;101752.44;;;5.46;98.06
75036;BME280;64247;51.540;5.854;2022-11-27T09:39:53;101756.47;;;5.48;98.49
75036;BME280;64247;51.540;5.854;2022-11-27T09:41:57;101748.63;;;5.52;97.67
75036;BME280;64247;51.540;5.854;2022-11-27T09:47:05;101748.00;;;5.60;96.53
75036;BME280;64247;51.540;5.854;2022-11-27T09:50:33;101761.16;;;5.67;97.30
75036;BME280;64247;51.540;5.854;2022-11-27T09:52:38;101763.56;;;5.68;97.54
75036;BME280;64247;51.540;5.854;2022-11-27T09:54:56;101758.69;;;5.70;97.07
75036;BME280;64247;51.540;5.854;2022-11-27T09:57:14;101760.78;;;5.74;97.31
75036;BME280;64247;51.540;5.854;2022-11-27T09:59:35;101753.25;;;5.76;97.39
75036;BME280;64247;51.540;5.854;2022-11-27T10:01:44;101759.94;;;5.78;97.70
75036;BME280;64247;51.540;5.854;2022-11-27T10:03:46;101754.78;;;5.82;97.48
75036;BME280;64247;51.540;5.854;2022-11-27T10:09:16;101748.78;;;5.90;97.46
75036;BME280;64247;51.540;5.854;2022-11-27T10:18:01;101748.09;;;6.04;97.25
75036;BME280;64247;51.540;5.854;2022-11-27T10:20:17;101737.28;;;6.09;96.71
75036;BME280;64247;51.540;5.854;2022-11-27T10:25:47;101732.84;;;6.18;96.89
75036;BME280;64247;51.540;5.854;2022-11-27T10:31:18;101718.50;;;6.23;96.64
75036;BME280;64247;51.540;5.854;2022-11-27T10:35:55;101698.81;;;6.22;96.20
75036;BME280;64247;51.540;5.854;2022-11-27T10:38:20;101696.44;;;6.21;96.25
75036;BME280;64247;51.540;5.854;2022-11-27T10:40:28;101694.81;;;6.20;96.43
75036;BME280;64247;51.540;5.854;2022-11-27T10:43:02;101694.81;;;6.20;96.90
75036;BME280;64247;51.540;5.854;2022-11-27T10:46:18;101686.44;;;6.21;96.73
75036;BME280;64247;51.540;5.854;2022-11-27T10:48:24;101686.44;;;6.21;96.67
75036;BME280;64247;51.540;5.854;2022-11-27T10:50:27;101683.66;;;6.26;96.87
75036;BME280;64247;51.540;5.854;2022-11-27T10:52:28;101684.41;;;6.32;96.56
75036;BME280;64247;51.540;5.854;2022-11-27T10:54:33;101684.63;;;6.36;96.46
75036;BME280;64247;51.540;5.854;2022-11-27T10:56:49;101687.00;;;6.37;96.14
75036;BME280;64247;51.540;5.854;2022-11-27T10:59:08;101683.44;;;6.42;96.09
75036;BME280;64247;51.540;5.854;2022-11-27T11:01:18;101680.69;;;6.47;96.27
75036;BME280;64247;51.540;5.854;2022-11-27T11:03:21;101681.19;;;6.49;96.29
75036;BME280;64247;51.540;5.854;2022-11-27T11:05:24;101677.09;;;6.52;95.43
75036;BME280;64247;51.540;5.854;2022-11-27T11:07:28;101666.81;;;6.54;95.82
75036;BME280;64247;51.540;5.854;2022-11-27T11:09:32;101663.81;;;6.55;95.69
75036;BME280;64247;51.540;5.854;2022-11-27T11:11:34;101663.25;;;6.58;95.77
75036;BME280;64247;51.540;5.854;2022-11-27T11:14:00;101658.38;;;6.60;95.75
75036;BME280;64247;51.540;5.854;2022-11-27T11:16:21;101656.19;;;6.62;95.85
75036;BME280;64247;51.540;5.854;2022-11-27T11:18:44;101640.50;;;6.64;95.50
75036;BME280;64247;51.540;5.854;2022-11-27T11:20:58;101643.69;;;6.67;95.39
75036;BME280;64247;51.540;5.854;2022-11-27T11:23:05;101633.69;;;6.67;94.72
75036;BME280;64247;51.540;5.854;2022-11-27T11:25:15;101632.13;;;6.66;94.49
75036;BME280;64247;51.540;5.854;2022-11-27T11:27:24;101646.09;;;6.68;94.88
75036;BME280;64247;51.540;5.854;2022-11-27T11:29:31;101637.44;;;6.71;95.22
75036;BME280;64247;51.540;5.854;2022-11-27T11:31:38;101625.53;;;6.72;94.63
75036;BME280;64247;51.540;5.854;2022-11-27T11:33:55;101633.34;;;6.74;94.41
75036;BME280;64247;51.540;5.854;2022-11-27T11:36:07;101624.16;;;6.75;94.92
75036;BME280;64247;51.540;5.854;2022-11-27T11:38:16;101618.75;;;6.75;94.64
75036;BME280;64247;51.540;5.854;2022-11-27T11:40:38;101614.44;;;6.74;94.83
75036;BME280;64247;51.540;5.854;2022-11-27T11:45:26;101617.94;;;6.74;94.85
75036;BME280;64247;51.540;5.854;2022-11-27T11:47:30;101615.75;;;6.76;95.09
75036;BME280;64247;51.540;5.854;2022-11-27T11:49:32;101621.34;;;6.80;94.57
75036;BME280;64247;51.540;5.854;2022-11-27T12:35:51;101498.94;;;7.18;95.17
75036;BME280;64247;51.540;5.854;2022-11-27T12:43:22;101488.84;;;7.23;94.64
75036;BME280;64247;51.540;5.854;2022-11-27T12:47:09;101479.00;;;7.27;94.05